Time;durP1;ratioP1;P1;durP2;ratioP2;P2;SDS_P1;SDS_P2;PMS_P1;PMS_P2;Temp;Humidity;BMP_temperature;BMP_pressure;BME280_temperature;BME280_humidity;BME280_pressure;Samples;Min_cycle;Max_cycle;Signal;HPM_P1;HPM_P2
2023/06/17 00:01:14;;;;;;;4.28;3.40;;;;;;;18.34;49.69;100266.94;10303595;28;20046;-64
2023/06/17 00:06:16;;;;;;;4.93;3.53;;;;;;;18.35;49.63;100265.91;10298082;28;20034;-60
2023/06/17 00:11:18;;;;;;;9.90;3.95;;;;;;;18.36;49.63;100259.38;10294898;28;20049;-62
2023/06/17 00:16:20;;;;;;;6.18;3.53;;;;;;;18.33;50.18;100257.13;10303523;28;20054;-61
2023/06/17 00:21:22;;;;;;;8.20;4.35;;;;;;;18.28;50.26;100261.59;10310704;28;20088;-62
2023/06/17 00:26:23;;;;;;;8.25;4.13;;;;;;;18.18;50.38;100240.38;10304844;28;20038;-62
2023/06/17 00:31:25;;;;;;;4.90;3.85;;;;;;;18.06;50.62;100248.47;10311807;28;20049;-61
2023/06/17 00:36:26;;;;;;;6.07;4.45;;;;;;;17.95;50.92;100255.50;10311783;28;20054;-61
2023/06/17 00:41:28;;;;;;;5.20;4.25;;;;;;;17.91;50.99;100248.00;10298506;28;20142;-60
2023/06/17 00:46:35;;;;;;;5.72;4.35;;;;;;;17.82;51.60;100248.28;10310563;28;20058;-60
2023/06/17 00:51:38;;;;;;;10.38;4.78;;;;;;;17.79;51.45;100248.75;10312947;28;20529;-61
2023/06/17 00:56:41;;;;;;;4.90;4.32;;;;;;;17.68;51.83;100245.97;10305604;28;20053;-62
2023/06/17 01:01:43;;;;;;;8.00;4.35;;;;;;;17.65;51.80;100252.66;10315637;28;20046;-62
2023/06/17 01:07:00;;;;;;;9.13;4.72;;;;;;;17.58;51.94;100243.75;10304784;28;20042;-60
2023/06/17 01:12:07;;;;;;;7.03;4.35;;;;;;;17.50;52.50;100233.19;10308757;28;20494;-60
2023/06/17 01:17:12;;;;;;;9.02;4.43;;;;;;;17.33;52.58;100241.88;10310467;28;20505;-61
2023/06/17 01:22:16;;;;;;;6.93;4.40;;;;;;;17.23;53.11;100236.97;10311639;28;20686;-60
2023/06/17 01:27:17;;;;;;;6.60;4.38;;;;;;;17.18;52.90;100231.38;10307419;28;20054;-60
2023/06/17 01:32:22;;;;;;;4.78;4.20;;;;;;;17.14;52.98;100223.88;10305431;28;20045;-60
2023/06/17 01:37:29;;;;;;;10.02;4.38;;;;;;;17.15;53.03;100223.66;10304903;28;20125;-60
2023/06/17 01:42:34;;;;;;;9.35;5.20;;;;;;;17.11;53.03;100230.59;10305873;28;20521;-62
2023/06/17 01:47:36;;;;;;;6.03;4.30;;;;;;;17.05;53.24;100232.31;10306222;28;20409;-60
2023/06/17 01:52:37;;;;;;;6.55;4.13;;;;;;;16.99;53.41;100226.94;10303926;28;20592;-60
2023/06/17 01:57:39;;;;;;;5.70;4.65;;;;;;;16.95;53.43;100221.13;10302976;28;20054;-60
2023/06/17 02:02:41;;;;;;;6.85;4.78;;;;;;;16.84;53.63;100233.53;10310298;28;20401;-61
2023/06/17 02:07:43;;;;;;;5.70;3.88;;;;;;;16.82;53.94;100235.63;10311182;28;20089;-59
2023/06/17 02:12:44;;;;;;;7.00;4.30;;;;;;;16.77;53.98;100237.31;10308272;28;20046;-60
2023/06/17 02:17:46;;;;;;;7.65;3.92;;;;;;;16.77;54.05;100230.00;10307451;28;20042;-62
2023/06/17 02:22:47;;;;;;;7.43;4.38;;;;;;;16.75;54.25;100229.38;10303207;28;20153;-62
2023/06/17 02:27:49;;;;;;;10.10;4.50;;;;;;;16.66;54.07;100225.25;10304640;28;20050;-61
2023/06/17 02:32:50;;;;;;;6.57;4.28;;;;;;;16.62;54.05;100221.31;10303365;28;20062;-61
2023/06/17 02:37:53;;;;;;;6.07;4.90;;;;;;;16.55;54.41;100223.28;10303576;28;20506;-60
2023/06/17 02:42:55;;;;;;;6.57;4.35;;;;;;;16.50;54.53;100215.75;10304589;28;20053;-60
2023/06/17 02:47:56;;;;;;;8.82;5.30;;;;;;;16.42;54.78;100214.13;10309034;28;20058;-60
2023/06/17 02:52:58;;;;;;;6.78;4.95;;;;;;;16.39;54.80;100211.88;10300577;28;20043;-61
2023/06/17 02:58:00;;;;;;;8.90;5.85;;;;;;;16.38;54.89;100222.94;10307647;28;20128;-62
2023/06/17 03:03:02;;;;;;;8.23;5.60;;;;;;;16.31;55.19;100225.69;10305389;28;20077;-59
2023/06/17 03:08:06;;;;;;;8.73;5.43;;;;;;;16.22;55.48;100224.28;10305664;28;20061;-61
2023/06/17 03:13:07;;;;;;;6.22;5.28;;;;;;;16.18;55.58;100231.19;10307164;28;20042;-59
2023/06/17 03:18:08;;;;;;;7.10;5.57;;;;;;;16.19;55.73;100225.53;10300968;28;20157;-62
2023/06/17 03:23:11;;;;;;;7.00;5.38;;;;;;;16.14;55.90;100230.78;10299781;28;20046;-61
2023/06/17 03:28:12;;;;;;;7.05;5.38;;;;;;;16.11;55.99;100230.38;10305394;28;20532;-61
2023/06/17 03:33:14;;;;;;;8.73;5.32;;;;;;;16.00;56.50;100230.00;10304129;28;20469;-59
2023/06/17 03:38:16;;;;;;;12.45;5.80;;;;;;;15.76;57.21;100228.00;10307441;28;20044;-59
2023/06/17 03:43:17;;;;;;;8.15;5.53;;;;;;;15.90;56.82;100235.06;10296689;28;20537;-60
2023/06/17 03:48:19;;;;;;;7.25;5.25;;;;;;;16.00;56.65;100235.41;10300964;28;20058;-61
2023/06/17 03:53:20;;;;;;;8.50;5.70;;;;;;;16.10;56.41;100226.84;10303809;28;20090;-59
2023/06/17 03:58:24;;;;;;;14.35;5.50;;;;;;;16.15;56.74;100231.59;10300505;28;20054;-60
2023/06/17 04:03:26;;;;;;;6.05;4.72;;;;;;;16.25;56.56;100221.13;10303832;28;20053;-59
2023/06/17 04:08:28;;;;;;;10.30;5.13;;;;;;;16.30;56.60;100215.06;10302779;28;20044;-60
2023/06/17 04:13:29;;;;;;;7.95;5.53;;;;;;;16.36;56.50;100211.47;10304753;28;20404;-62
2023/06/17 04:18:30;;;;;;;7.40;5.50;;;;;;;16.38;56.57;100210.19;10302824;28;20061;-60
2023/06/17 04:23:32;;;;;;;8.10;5.45;;;;;;;16.45;56.58;100204.75;10298460;28;20108;-61
2023/06/17 04:28:34;;;;;;;11.52;6.07;;;;;;;16.56;56.61;100216.78;10297750;28;20065;-59
2023/06/17 04:33:37;;;;;;;6.47;5.18;;;;;;;16.62;56.66;100219.44;10299300;28;20050;-61
2023/06/17 04:38:42;;;;;;;8.80;6.32;;;;;;;16.69;56.69;100213.97;10299044;28;20038;-61
2023/06/17 04:43:48;;;;;;;8.50;5.82;;;;;;;16.78;56.54;100209.91;10299634;28;20042;-61
2023/06/17 04:48:50;;;;;;;7.10;4.83;;;;;;;16.79;56.67;100217.03;10301597;28;20515;-61
2023/06/17 04:53:51;;;;;;;7.50;5.40;;;;;;;16.85;56.66;100215.34;10303794;28;20125;-70
2023/06/17 04:58:53;;;;;;;8.45;5.18;;;;;;;17.03;56.55;100220.84;10298279;28;20046;-70
2023/06/17 05:03:54;;;;;;;12.35;6.20;;;;;;;17.12;56.29;100224.13;10309646;28;20054;-70
2023/06/17 05:08:56;;;;;;;8.50;6.38;;;;;;;17.20;56.42;100222.97;10307930;28;20054;-71
2023/06/17 05:13:57;;;;;;;10.38;6.57;;;;;;;17.32;56.33;100228.53;10312046;28;20108;-68
2023/06/17 05:18:59;;;;;;;10.80;5.57;;;;;;;17.44;56.25;100222.13;10305594;28;20042;-70
2023/06/17 05:24:00;;;;;;;8.18;5.97;;;;;;;17.66;56.01;100234.47;10303539;28;20055;-71
2023/06/17 05:29:04;;;;;;;8.85;6.00;;;;;;;17.70;56.16;100227.53;10306459;28;20056;-69
2023/06/17 05:34:05;;;;;;;10.70;6.15;;;;;;;17.86;56.04;100228.84;10303756;28;20130;-67
2023/06/17 05:39:07;;;;;;;8.77;6.05;;;;;;;18.09;55.73;100233.56;10304101;28;20109;-71
2023/06/17 05:44:08;;;;;;;8.90;5.72;;;;;;;18.25;55.54;100232.97;10307189;28;20069;-67
2023/06/17 05:49:10;;;;;;;9.02;5.68;;;;;;;18.47;55.40;100230.56;10306965;28;20506;-71
2023/06/17 05:54:11;;;;;;;9.20;5.50;;;;;;;18.68;54.81;100231.94;10308971;28;20057;-69
2023/06/17 05:59:13;;;;;;;8.15;6.00;;;;;;;18.82;54.80;100233.44;10309467;28;20397;-61
2023/06/17 06:04:16;;;;;;;6.97;5.70;;;;;;;19.03;54.43;100231.19;10305756;28;20050;-67
2023/06/17 06:09:20;;;;;;;9.05;5.45;;;;;;;19.21;54.44;100236.56;10310517;28;20062;-67
2023/06/17 06:14:21;;;;;;;6.15;4.90;;;;;;;19.42;53.88;100239.78;10304047;28;20089;-69
2023/06/17 06:19:24;;;;;;;8.73;4.88;;;;;;;19.60;53.58;100236.91;10302080;28;20117;-67
2023/06/17 06:24:25;;;;;;;7.43;5.90;;;;;;;19.68;53.45;100238.44;10304689;28;20104;-69
2023/06/17 06:29:27;;;;;;;6.32;5.32;;;;;;;19.87;53.05;100244.63;10303034;28;20238;-72
2023/06/17 06:34:28;;;;;;;6.43;5.07;;;;;;;19.93;52.69;100246.38;10309516;28;20056;-66
2023/06/17 06:39:30;;;;;;;8.30;4.72;;;;;;;20.08;52.25;100243.13;10306806;28;20046;-71
2023/06/17 06:44:31;;;;;;;5.50;4.07;;;;;;;20.37;51.65;100251.38;10307289;28;20050;-70
2023/06/17 06:49:33;;;;;;;7.55;4.20;;;;;;;20.63;50.78;100247.22;10301763;28;20525;-70
2023/06/17 06:54:35;;;;;;;7.82;4.60;;;;;;;20.86;49.93;100249.03;10307649;28;20046;-70
2023/06/17 06:59:36;;;;;;;6.63;4.63;;;;;;;21.05;49.40;100246.03;10305598;28;20418;-69
2023/06/17 07:04:38;;;;;;;5.57;3.97;;;;;;;21.27;48.74;100243.38;10301779;28;20053;-71
2023/06/17 07:09:39;;;;;;;12.00;5.05;;;;;;;21.55;48.61;100240.56;10306132;28;20047;-71
2023/06/17 07:14:41;;;;;;;7.72;4.60;;;;;;;21.69;47.93;100246.50;10305509;28;20542;-69
2023/06/17 07:19:42;;;;;;;6.88;3.88;;;;;;;21.75;46.98;100250.16;10306585;28;20042;-71
2023/06/17 07:24:43;;;;;;;3.90;3.60;;;;;;;21.98;46.68;100249.91;10304789;28;20332;-70
2023/06/17 07:29:45;;;;;;;7.53;3.70;;;;;;;22.31;46.52;100250.88;10303207;28;20536;-65
2023/06/17 07:34:46;;;;;;;6.22;4.50;;;;;;;22.60;46.35;100260.78;10304441;28;20090;-75
2023/06/17 07:39:48;;;;;;;9.30;4.32;;;;;;;22.69;46.21;100254.59;10301163;28;20051;-71
2023/06/17 07:44:49;;;;;;;6.30;4.57;;;;;;;22.86;45.90;100254.47;10306339;28;20859;-70
2023/06/17 07:49:50;;;;;;;8.93;4.25;;;;;;;22.93;45.62;100249.59;10298622;28;20394;-70
2023/06/17 07:54:52;;;;;;;5.65;4.40;;;;;;;23.24;45.21;100246.31;10303794;28;20406;-65
2023/06/17 07:59:54;;;;;;;4.53;3.83;;;;;;;23.40;44.61;100236.28;10301277;28;20433;-68
2023/06/17 08:04:55;;;;;;;7.15;4.00;;;;;;;23.62;43.96;100233.38;10298765;28;20050;-69
2023/06/17 08:09:56;;;;;;;5.20;3.05;;;;;;;23.82;42.96;100229.97;10303357;28;20474;-71
2023/06/17 08:14:58;;;;;;;7.22;3.72;;;;;;;24.01;43.25;100227.56;10301935;28;20120;-68
2023/06/17 08:19:59;;;;;;;5.22;3.55;;;;;;;24.37;42.47;100224.94;10304330;28;20051;-69
2023/06/17 08:25:01;;;;;;;3.95;3.55;;;;;;;24.63;42.13;100215.69;10309010;28;20074;-71
2023/06/17 08:30:04;;;;;;;4.57;3.63;;;;;;;24.78;42.51;100214.06;10305005;28;20090;-66
2023/06/17 08:35:06;;;;;;;5.65;3.72;;;;;;;25.15;41.59;100211.03;10305560;28;20042;-72
2023/06/17 08:40:08;;;;;;;5.55;3.80;;;;;;;25.29;41.23;100206.63;10306632;28;20057;-72
2023/06/17 08:45:10;;;;;;;5.68;3.60;;;;;;;25.48;40.53;100204.13;10306436;28;20540;-69
2023/06/17 08:50:12;;;;;;;4.30;3.00;;;;;;;25.89;39.38;100206.75;10309279;28;20046;-66
2023/06/17 08:55:14;;;;;;;3.85;3.38;;;;;;;26.15;39.35;100206.66;10313347;28;20047;-69
2023/06/17 09:00:16;;;;;;;4.80;3.45;;;;;;;26.46;38.04;100195.44;10303155;28;20046;-70
2023/06/17 09:05:17;;;;;;;7.90;3.10;;;;;;;26.72;37.75;100207.16;10312572;28;20055;-72
2023/06/17 09:10:19;;;;;;;5.22;3.67;;;;;;;26.94;36.59;100192.91;10310289;28;20746;-68
2023/06/17 09:15:21;;;;;;;4.90;4.05;;;;;;;27.08;36.43;100184.78;10304099;28;20050;-69
2023/06/17 09:20:22;;;;;;;3.83;3.45;;;;;;;27.34;35.48;100192.84;10307170;28;20058;-66
2023/06/17 09:25:24;;;;;;;5.47;3.65;;;;;;;27.19;34.89;100191.00;10304448;28;20045;-67
2023/06/17 09:30:26;;;;;;;5.50;3.20;;;;;;;27.17;34.59;100179.44;10315074;28;20051;-68
2023/06/17 09:35:27;;;;;;;6.82;3.17;;;;;;;27.51;33.42;100165.59;10308861;28;20073;-67
2023/06/17 09:40:32;;;;;;;3.30;3.00;;;;;;;27.82;33.43;100163.25;10300375;28;20680;-67
2023/06/17 09:45:34;;;;;;;4.38;3.10;;;;;;;28.18;32.63;100156.44;10304311;28;20046;-65
2023/06/17 09:50:37;;;;;;;4.07;2.45;;;;;;;28.52;32.21;100147.97;10304340;28;20083;-68
2023/06/17 09:55:39;;;;;;;5.47;3.10;;;;;;;28.81;30.73;100141.38;10309964;28;20042;-68
2023/06/17 10:00:45;;;;;;;7.35;2.90;;;;;;;28.42;30.69;100146.16;10293258;28;20047;-68
2023/06/17 10:05:56;;;;;;;5.72;2.83;;;;;;;28.94;29.63;100131.47;10308849;28;20074;-65
2023/06/17 10:11:00;;;;;;;3.60;2.63;;;;;;;29.22;29.07;100138.72;10305349;28;20237;-66
2023/06/17 10:16:04;;;;;;;5.07;3.20;;;;;;;29.39;29.13;100135.34;10308057;28;20482;-67
2023/06/17 10:21:09;;;;;;;3.00;2.67;;;;;;;29.46;29.21;100124.69;10303374;28;20134;-67
2023/06/17 10:26:11;;;;;;;3.28;2.97;;;;;;;29.35;29.32;100130.75;10302296;28;20439;-65
2023/06/17 10:31:24;;;;;;;2.83;2.38;;;;;;;29.54;29.10;100117.59;10302060;28;20072;-67
2023/06/17 10:36:28;;;;;;;2.75;2.28;;;;;;;29.80;28.04;100123.47;10305062;28;20047;-66
2023/06/17 10:41:38;;;;;;;3.28;2.10;;;;;;;30.01;26.92;100111.91;10306583;28;20053;-67
2023/06/17 10:46:40;;;;;;;7.00;2.10;;;;;;;30.31;25.92;100118.69;10304407;28;20043;-68
2023/06/17 10:51:48;;;;;;;3.67;1.80;;;;;;;30.30;26.16;100119.81;10305218;28;20046;-66
2023/06/17 10:57:04;;;;;;;6.75;2.40;;;;;;;30.18;25.98;100127.88;10297622;28;20535;-68
2023/06/17 11:02:07;;;;;;;3.88;2.33;;;;;;;30.24;25.06;100112.75;10301353;28;20413;-67
2023/06/17 11:07:08;;;;;;;5.35;2.00;;;;;;;30.54;24.39;100119.53;10303384;28;20050;-68
2023/06/17 11:12:10;;;;;;;3.70;1.90;;;;;;;30.96;23.54;100113.78;10302952;28;20513;-67
2023/06/17 11:17:12;;;;;;;4.03;1.80;;;;;;;31.11;23.27;100118.91;10303852;28;20069;-68
2023/06/17 11:22:13;;;;;;;3.10;2.30;;;;;;;30.79;23.15;100115.28;10299619;28;20062;-69
2023/06/17 11:27:15;;;;;;;5.10;2.53;;;;;;;31.05;23.25;100100.75;10303489;28;20403;-70
2023/06/17 11:32:20;;;;;;;1.88;1.52;;;;;;;31.20;22.71;100099.50;10312270;28;20046;-67
2023/06/17 11:37:23;;;;;;;1.93;1.53;;;;;;;31.12;22.28;100094.72;10306225;28;20109;-68
2023/06/17 11:42:24;;;;;;;7.50;2.88;;;;;;;31.32;22.31;100099.72;10306495;28;20038;-73
2023/06/17 11:47:34;;;;;;;3.55;2.13;;;;;;;31.14;21.50;100086.91;10301012;28;20061;-66
2023/06/17 11:52:35;;;;;;;1.77;1.67;;;;;;;31.39;22.64;100079.81;10302676;28;20157;-66
2023/06/17 11:57:37;;;;;;;2.67;1.30;;;;;;;31.53;21.66;100076.94;10299321;28;20047;-66
2023/06/17 12:02:39;;;;;;;2.92;2.00;;;;;;;31.00;20.48;100076.75;10307249;28;20055;-68
2023/06/17 12:07:41;;;;;;;2.92;1.63;;;;;;;31.30;20.29;100068.69;10299889;28;20485;-66
2023/06/17 12:12:42;;;;;;;3.08;1.75;;;;;;;31.69;19.82;100077.28;10304295;28;20049;-68
2023/06/17 12:17:47;;;;;;;3.38;2.13;;;;;;;31.51;19.39;100077.25;10303517;28;20049;-68
2023/06/17 12:22:50;;;;;;;3.80;1.67;;;;;;;31.19;19.14;100062.59;10300562;28;20157;-67
2023/06/17 12:27:52;;;;;;;1.80;1.35;;;;;;;31.44;19.49;100063.00;10303094;28;20117;-67
2023/06/17 12:32:53;;;;;;;2.95;1.73;;;;;;;31.55;19.31;100060.75;10301996;28;20050;-68
2023/06/17 12:37:55;;;;;;;2.15;1.60;;;;;;;31.83;19.67;100047.34;10299922;28;20050;-67
2023/06/17 12:42:56;;;;;;;2.42;1.80;;;;;;;32.47;19.70;100048.66;10311426;28;20042;-67
2023/06/17 12:47:58;;;;;;;2.30;1.77;;;;;;;32.92;19.69;100032.31;10306147;28;20513;-68
2023/06/17 12:52:59;;;;;;;3.05;1.95;;;;;;;32.20;19.57;100045.09;10302121;28;20073;-68
2023/06/17 12:58:01;;;;;;;2.47;1.98;;;;;;;31.62;19.65;100048.00;10302096;28;20606;-67
2023/06/17 13:03:02;;;;;;;3.60;2.20;;;;;;;31.12;20.88;100036.41;10292754;28;20060;-68
2023/06/17 13:08:04;;;;;;;5.78;2.28;;;;;;;31.10;21.84;100030.38;10295609;28;20667;-67
2023/06/17 13:13:06;;;;;;;6.20;2.20;;;;;;;31.96;21.00;100031.66;10292450;28;20465;-68
2023/06/17 13:18:08;;;;;;;3.72;2.17;;;;;;;32.08;20.77;100023.50;10290850;28;20396;-67
2023/06/17 13:23:10;;;;;;;3.78;2.05;;;;;;;32.35;19.71;100029.88;10293786;28;20561;-66
2023/06/17 13:28:11;;;;;;;6.15;1.65;;;;;;;33.13;18.98;100020.44;10324571;28;20046;-64
2023/06/17 13:33:14;;;;;;;3.72;1.60;;;;;;;34.28;18.74;100019.25;10310702;28;20054;-65
2023/06/17 13:38:15;;;;;;;1.73;1.60;;;;;;;35.39;17.28;99997.88;10306675;28;20046;-66
2023/06/17 13:43:17;;;;;;;2.08;1.67;;;;;;;37.38;15.80;100002.81;10328997;28;20042;-65
2023/06/17 13:48:19;;;;;;;3.85;1.70;;;;;;;37.92;14.72;100009.63;10322683;28;20050;-65
2023/06/17 13:53:20;;;;;;;2.83;1.92;;;;;;;38.86;13.95;100009.34;10329741;28;20062;-66
2023/06/17 13:58:22;;;;;;;3.35;2.30;;;;;;;39.13;13.63;100010.22;10326155;28;20038;-65
2023/06/17 14:03:23;;;;;;;2.75;1.45;;;;;;;38.33;14.18;100010.00;10320628;28;20048;-64
2023/06/17 14:08:25;;;;;;;1.63;1.50;;;;;;;38.55;13.10;99999.19;10323224;28;20042;-66
2023/06/17 14:13:26;;;;;;;3.00;1.60;;;;;;;37.11;13.84;99988.56;10314017;28;20042;-65
2023/06/17 14:18:27;;;;;;;4.53;2.30;;;;;;;36.52;14.08;99981.09;10330785;28;20050;-65
2023/06/17 14:23:29;;;;;;;2.95;1.13;;;;;;;36.27;14.40;99980.44;10320604;28;20279;-64
2023/06/17 14:28:30;;;;;;;4.30;1.45;;;;;;;35.31;14.98;99979.22;10311432;28;20413;-67
2023/06/17 14:33:32;;;;;;;2.15;1.83;;;;;;;34.85;14.85;99970.97;10318125;28;20865;-65
2023/06/17 14:38:33;;;;;;;2.72;1.90;;;;;;;35.35;14.49;99967.00;10320898;28;20125;-64
2023/06/17 14:43:35;;;;;;;9.15;2.30;;;;;;;35.45;14.92;99967.66;10325909;28;20735;-64
2023/06/17 14:48:37;;;;;;;3.55;1.80;;;;;;;35.31;14.44;99954.06;10327630;28;20042;-65
2023/06/17 14:53:41;;;;;;;2.20;1.20;;;;;;;35.06;15.24;99961.69;10322605;28;20076;-66
2023/06/17 14:58:43;;;;;;;5.00;1.45;;;;;;;34.69;15.34;99958.88;10318979;28;20137;-65
2023/06/17 15:03:44;;;;;;;4.25;1.98;;;;;;;34.66;15.19;99957.63;10316357;28;20307;-63
2023/06/17 15:08:46;;;;;;;2.70;1.40;;;;;;;35.09;15.11;99946.97;10332254;28;20528;-66
2023/06/17 15:13:47;;;;;;;2.13;1.60;;;;;;;35.77;14.60;99956.66;10324767;28;20055;-67
2023/06/17 15:18:48;;;;;;;2.85;2.05;;;;;;;35.18;14.79;99947.72;10314129;28;20051;-65
2023/06/17 15:23:50;;;;;;;2.13;1.88;;;;;;;34.54;15.49;99947.22;10319525;28;20046;-64
2023/06/17 15:28:52;;;;;;;2.33;1.83;;;;;;;35.20;14.97;99950.16;10322579;28;20054;-63
2023/06/17 15:33:53;;;;;;;2.25;1.88;;;;;;;35.22;15.10;99951.41;10341744;28;20074;-63
2023/06/17 15:39:01;;;;;;;1.75;1.50;;;;;;;35.26;15.08;99938.38;10319425;28;20047;-68
2023/06/17 15:44:03;;;;;;;2.90;1.55;;;;;;;35.72;14.47;99940.91;10304588;28;20053;-68
2023/06/17 15:49:06;;;;;;;1.83;1.73;;;;;;;36.13;14.34;99942.47;10300619;28;20055;-68
2023/06/17 15:54:07;;;;;;;3.78;1.75;;;;;;;36.31;14.95;99944.94;10301740;28;20453;-66
2023/06/17 15:59:09;;;;;;;1.52;1.30;;;;;;;36.21;14.80;99949.09;10301797;28;20053;-67
2023/06/17 16:04:31;;;;;;;2.83;1.77;;;;;;;36.08;14.79;99933.50;10287584;28;20045;-67
2023/06/17 16:09:35;;;;;;;5.57;2.25;;;;;;;35.81;14.62;99938.00;10302440;28;20614;-69
2023/06/17 16:14:37;;;;;;;;;;;;;;;36.00;14.80;99940.09;10300882;28;20054;-68
2023/06/17 16:19:38;;;;;;;2.67;1.95;;;;;;;36.32;14.25;99943.78;10302269;28;19922;-69
2023/06/17 16:24:41;;;;;;;1.73;1.63;;;;;;;35.21;14.58;99944.22;10300152;28;20100;-69
2023/06/17 16:29:43;;;;;;;1.42;1.23;;;;;;;35.09;14.58;99933.84;10303755;28;20073;-69
2023/06/17 16:34:44;;;;;;;3.78;1.98;;;;;;;35.01;14.22;99931.97;10303658;28;20397;-69
2023/06/17 16:39:46;;;;;;;2.58;1.33;;;;;;;35.64;14.20;99928.69;10299703;28;20039;-68
2023/06/17 16:44:47;;;;;;;1.75;1.00;;;;;;;35.40;14.19;99934.38;10297781;28;20054;-69
2023/06/17 16:49:49;;;;;;;2.10;1.50;;;;;;;34.90;14.47;99930.84;10297376;28;20061;-67
2023/06/17 16:54:50;;;;;;;2.58;1.30;;;;;;;34.81;13.62;99932.94;10302539;28;20426;-70
2023/06/17 16:59:52;;;;;;;2.45;1.35;;;;;;;34.91;13.95;99930.47;10303899;28;20490;-69
2023/06/17 17:04:53;;;;;;;2.88;1.90;;;;;;;35.35;13.76;99939.06;10304472;28;20165;-70
2023/06/17 17:09:55;;;;;;;3.30;1.85;;;;;;;35.82;13.65;99945.19;10306636;28;20050;-70
2023/06/17 17:14:56;;;;;;;1.85;1.10;;;;;;;36.06;13.46;99947.03;10302636;28;20050;-68
2023/06/17 17:19:58;;;;;;;2.00;1.00;;;;;;;35.58;13.78;99940.50;10300773;28;20061;-69
2023/06/17 17:24:59;;;;;;;1.25;1.15;;;;;;;35.65;13.70;99944.31;10309998;28;20046;-67
2023/06/17 17:30:01;;;;;;;2.13;0.98;;;;;;;35.62;13.95;99938.59;10306438;28;20050;-70
2023/06/17 17:35:03;;;;;;;2.63;1.58;;;;;;;35.52;14.00;99939.94;10310048;28;20441;-70
2023/06/17 17:40:05;;;;;;;1.58;1.42;;;;;;;35.06;13.96;99940.13;10300183;28;20050;-70
2023/06/17 17:45:07;;;;;;;1.50;1.40;;;;;;;34.39;14.98;99959.06;10300815;28;20047;-68
2023/06/17 17:50:09;;;;;;;2.20;1.60;;;;;;;34.15;14.75;99960.63;10302465;28;20046;-69
2023/06/17 17:55:10;;;;;;;4.40;1.45;;;;;;;33.84;15.44;99961.09;10303200;28;20502;-69
2023/06/17 18:00:12;;;;;;;1.95;1.30;;;;;;;33.62;15.07;99956.69;10299519;28;20282;-70
2023/06/17 18:05:14;;;;;;;1.90;1.42;;;;;;;33.55;15.84;99956.38;10303776;28;20054;-69
2023/06/17 18:10:15;;;;;;;3.60;2.00;;;;;;;33.27;16.05;99954.13;10301890;28;20548;-70
2023/06/17 18:15:17;;;;;;;3.05;2.67;;;;;;;33.15;15.98;99963.22;10303281;28;20042;-68
2023/06/17 18:20:18;;;;;;;2.08;1.60;;;;;;;32.89;16.76;99955.00;10301382;28;20049;-69
2023/06/17 18:25:20;;;;;;;4.10;1.50;;;;;;;32.59;17.30;99957.78;10298559;28;20049;-69
2023/06/17 18:30:21;;;;;;;1.90;1.30;;;;;;;32.09;17.60;99960.34;10301294;28;20509;-69
2023/06/17 18:35:23;;;;;;;2.55;1.50;;;;;;;31.63;18.32;99959.88;10302728;28;20125;-68
2023/06/17 18:40:24;;;;;;;2.83;1.85;;;;;;;31.21;18.55;99948.41;10298478;28;20043;-69
2023/06/17 18:45:26;;;;;;;2.33;1.80;;;;;;;30.89;19.02;99950.47;10305591;28;20038;-69
2023/06/17 18:50:27;;;;;;;3.50;2.05;;;;;;;30.57;19.80;99955.22;10305309;28;20047;-68
2023/06/17 18:55:29;;;;;;;4.82;3.53;;;;;;;30.22;20.06;99956.97;10280519;28;20053;-68
2023/06/17 19:00:33;;;;;;;6.95;3.00;;;;;;;29.88;20.47;99960.31;10291080;28;20045;-66
2023/06/17 19:05:38;;;;;;;5.63;2.20;;;;;;;29.44;21.08;99965.47;10304818;28;20069;-65
2023/06/17 19:10:39;;;;;;;4.75;1.90;;;;;;;29.06;22.34;99974.84;10310524;28;20470;-67
2023/06/17 19:15:41;;;;;;;2.70;2.05;;;;;;;28.80;22.52;99979.28;10309223;28;20130;-66
2023/06/17 19:20:44;;;;;;;4.82;2.10;;;;;;;28.46;22.40;99981.25;10312541;28;20057;-65
2023/06/17 19:25:45;;;;;;;4.88;1.73;;;;;;;27.97;23.06;99987.38;10296512;28;20046;-65
2023/06/17 19:30:48;;;;;;;3.13;2.45;;;;;;;27.63;23.41;99985.66;10304868;28;20042;-65
2023/06/17 19:35:50;;;;;;;4.20;2.42;;;;;;;27.47;23.66;99991.41;10313724;28;20599;-65
2023/06/17 19:40:51;;;;;;;2.53;1.92;;;;;;;27.27;23.69;99989.75;10311369;28;20050;-65
2023/06/17 19:45:54;;;;;;;5.70;3.05;;;;;;;27.03;24.43;99992.50;10311094;28;20042;-66
2023/06/17 19:50:58;;;;;;;3.08;2.03;;;;;;;26.75;25.33;100002.47;10308757;28;20050;-65
2023/06/17 19:56:00;;;;;;;3.83;2.00;;;;;;;26.51;25.57;100006.00;10310166;28;20122;-63
2023/06/17 20:01:02;;;;;;;4.00;2.70;;;;;;;26.30;26.09;100008.16;10304228;28;20090;-65
2023/06/17 20:06:03;;;;;;;9.60;4.57;;;;;;;26.09;26.96;100004.72;10298237;28;20084;-66
2023/06/17 20:11:05;;;;;;;4.45;2.88;;;;;;;25.89;27.65;100016.69;10305732;28;20065;-64
2023/06/17 20:16:06;;;;;;;4.07;3.42;;;;;;;25.71;28.17;100012.69;10307817;28;20080;-66
2023/06/17 20:21:08;;;;;;;5.30;3.92;;;;;;;25.50;29.65;100020.25;10309033;28;20567;-64
2023/06/17 20:26:10;;;;;;;5.13;3.10;;;;;;;25.31;29.28;100022.00;10305041;28;20069;-69
2023/06/17 20:31:13;;;;;;;7.50;3.80;;;;;;;25.16;30.88;100022.00;10306816;28;20131;-68
2023/06/17 20:36:14;;;;;;;9.43;4.60;;;;;;;24.94;31.21;100024.03;10313608;28;20344;-68
2023/06/17 20:41:16;;;;;;;9.18;5.63;;;;;;;24.73;32.41;100022.44;10311411;28;20054;-69
2023/06/17 20:46:17;;;;;;;11.93;6.43;;;;;;;24.50;32.82;100027.41;10317024;28;20049;-71
2023/06/17 20:51:19;;;;;;;11.88;5.55;;;;;;;24.29;32.85;100012.00;10311836;28;20042;-68
2023/06/17 20:56:24;;;;;;;11.88;4.80;;;;;;;24.13;33.15;100012.03;10313603;28;20046;-70
2023/06/17 21:01:25;;;;;;;7.80;4.20;;;;;;;23.97;33.37;100010.34;10310118;28;20045;-71
2023/06/17 21:06:27;;;;;;;4.93;3.47;;;;;;;23.75;33.85;100014.13;10295745;28;20049;-70
2023/06/17 21:11:28;;;;;;;9.15;4.38;;;;;;;23.61;34.05;100007.53;10313099;28;20045;-69
2023/06/17 21:16:30;;;;;;;6.97;4.60;;;;;;;23.36;34.29;100005.53;10310652;28;20137;-67
2023/06/17 21:21:32;;;;;;;8.68;4.03;;;;;;;23.23;34.99;100019.78;10314169;28;20066;-70
2023/06/17 21:26:33;;;;;;;14.75;6.20;;;;;;;23.11;34.88;100020.81;10304748;28;20066;-69
2023/06/17 21:31:34;;;;;;;6.97;4.25;;;;;;;22.92;34.96;100020.41;10304812;28;20374;-69
2023/06/17 21:36:36;;;;;;;8.18;3.17;;;;;;;22.74;35.05;100029.09;10311039;28;20047;-70
2023/06/17 21:41:37;;;;;;;7.93;3.30;;;;;;;22.59;34.97;100029.81;10303696;28;20489;-69
2023/06/17 21:46:39;;;;;;;4.85;3.15;;;;;;;22.43;35.04;100020.66;10312192;28;20052;-68
2023/06/17 21:51:40;;;;;;;6.03;4.00;;;;;;;22.32;35.30;100019.75;10307497;28;20058;-68
2023/06/17 21:56:42;;;;;;;6.30;3.67;;;;;;;22.19;34.92;100020.16;10304982;28;20053;-68
2023/06/17 22:01:43;;;;;;;7.30;3.60;;;;;;;22.10;35.04;100022.56;10306921;28;20369;-68
2023/06/17 22:06:45;;;;;;;4.13;3.20;;;;;;;22.16;35.37;100034.38;10308478;28;20073;-68
2023/06/17 22:11:46;;;;;;;12.63;4.53;;;;;;;22.15;35.94;100029.97;10308996;28;20054;-69
2023/06/17 22:16:47;;;;;;;6.53;3.50;;;;;;;22.07;36.21;100027.72;10308886;28;20050;-70
2023/06/17 22:21:49;;;;;;;7.07;3.80;;;;;;;21.92;36.62;100028.41;10304154;28;20062;-69
2023/06/17 22:26:50;;;;;;;5.53;3.95;;;;;;;21.83;37.08;100035.44;10304403;28;20043;-67
2023/06/17 22:31:52;;;;;;;9.23;3.63;;;;;;;21.77;37.12;100029.91;10304984;28;20046;-69
2023/06/17 22:36:54;;;;;;;5.38;3.47;;;;;;;21.71;37.53;100030.13;10304519;28;20054;-69
2023/06/17 22:41:55;;;;;;;8.40;3.72;;;;;;;21.54;38.04;100038.41;10307932;28;20047;-69
2023/06/17 22:46:56;;;;;;;4.32;3.58;;;;;;;21.43;37.88;100037.47;10306297;28;20050;-68
2023/06/17 22:51:58;;;;;;;4.88;3.42;;;;;;;21.25;38.19;100040.47;10301022;28;20147;-68
2023/06/17 22:56:59;;;;;;;6.90;4.80;;;;;;;21.11;38.15;100038.16;10300179;28;20046;-67
2023/06/17 23:02:01;;;;;;;6.80;4.65;;;;;;;21.04;38.48;100032.03;10304468;28;20058;-69
2023/06/17 23:07:03;;;;;;;8.20;4.60;;;;;;;21.00;38.24;100023.50;10303665;28;20702;-69
2023/06/17 23:12:05;;;;;;;9.65;5.55;;;;;;;20.98;38.62;100035.78;10299079;28;20058;-68